JA4041 RJOY-RJBE

Flight info

Callsign JA4041
Flight time 0h 14m
Altitude 1500
Route RJOY/RJBE/C172
Aircraft C172/L-G/C

Departure

Time 2026-05-06 03:33
Airport Yao Airport (RJOY)

Arrival

Time 2026-05-06 03:47
Airport Kobe Airport (RJBE)
Time Latitude Longitude Altitude Speed Heading
2026-05-06 03:22 34.59728 135.59504 40 ft 0 kts 266°
2026-05-06 03:29 34.59711 135.59482 41 ft 9 kts 190°
2026-05-06 03:29 34.59677 135.59555 41 ft 15 kts 88°
2026-05-06 03:29 34.59686 135.59714 41 ft 22 kts 87°
2026-05-06 03:29 34.59694 135.59915 41 ft 25 kts 85°
2026-05-06 03:30 34.59709 135.60117 40 ft 18 kts 84°
2026-05-06 03:30 34.59686 135.60212 38 ft 0 kts 134°
2026-05-06 03:30 34.59681 135.60218 38 ft 7 kts 132°
2026-05-06 03:31 34.59626 135.60332 38 ft 21 kts 92°
2026-05-06 03:31 34.59649 135.60519 39 ft 19 kts 75°
2026-05-06 03:31 34.59629 135.60532 39 ft 12 kts 287°
2026-05-06 03:31 34.59636 135.60474 39 ft 0 kts 267°
2026-05-06 03:32 34.59633 135.60430 38 ft 26 kts 264°
2026-05-06 03:32 34.59620 135.59969 44 ft 79 kts 272°
2026-05-06 03:32 34.59607 135.59245 236 ft 89 kts 274°
2026-05-06 03:32 34.59669 135.58491 477 ft 91 kts 292°
2026-05-06 03:33 34.60006 135.57855 742 ft 91 kts 307°
2026-05-06 03:33 34.60336 135.57237 1025 ft 89 kts 302°
2026-05-06 03:33 34.60647 135.56552 1136 ft 101 kts 300°
2026-05-06 03:33 34.60968 135.55768 1231 ft 104 kts 298°
2026-05-06 03:34 34.61296 135.54939 1229 ft 116 kts 296°
2026-05-06 03:34 34.61622 135.54024 1238 ft 121 kts 293°
2026-05-06 03:34 34.61919 135.53066 1239 ft 121 kts 289°
2026-05-06 03:34 34.62202 135.52096 1228 ft 123 kts 291°
2026-05-06 03:35 34.62501 135.51129 1225 ft 122 kts 291°
2026-05-06 03:35 34.62806 135.50172 1225 ft 121 kts 292°
2026-05-06 03:35 34.63116 135.49234 1217 ft 121 kts 292°
2026-05-06 03:35 34.63439 135.48291 1213 ft 121 kts 293°
2026-05-06 03:36 34.63758 135.47352 1201 ft 118 kts 294°
2026-05-06 03:36 34.64077 135.46444 1180 ft 116 kts 293°
2026-05-06 03:36 34.64341 135.45526 1166 ft 115 kts 289°
2026-05-06 03:36 34.64610 135.44613 1155 ft 114 kts 285°
2026-05-06 03:37 34.64742 135.43664 1147 ft 114 kts 274°
2026-05-06 03:37 34.64763 135.42707 1157 ft 112 kts 269°
2026-05-06 03:37 34.64740 135.41768 1113 ft 116 kts 269°
2026-05-06 03:37 34.64716 135.40789 1076 ft 116 kts 268°
2026-05-06 03:38 34.64691 135.39819 1055 ft 114 kts 269°
2026-05-06 03:38 34.64687 135.38856 1035 ft 114 kts 270°
2026-05-06 03:38 34.64682 135.37893 1008 ft 114 kts 266°
2026-05-06 03:38 34.64668 135.36931 993 ft 114 kts 273°
2026-05-06 03:39 34.64703 135.35972 982 ft 114 kts 273°
2026-05-06 03:39 34.64745 135.35011 947 ft 114 kts 274°
2026-05-06 03:39 34.64793 135.34060 917 ft 114 kts 274°
2026-05-06 03:39 34.64847 135.33094 900 ft 115 kts 274°
2026-05-06 03:40 34.64852 135.32126 869 ft 116 kts 263°
2026-05-06 03:40 34.64739 135.31195 997 ft 104 kts 260°
2026-05-06 03:40 34.64640 135.30328 1061 ft 105 kts 268°
2026-05-06 03:40 34.64689 135.29428 1088 ft 108 kts 275°
2026-05-06 03:41 34.64749 135.28510 1106 ft 109 kts 276°
2026-05-06 03:41 34.64856 135.27602 1146 ft 109 kts 279°
2026-05-06 03:41 34.64938 135.26712 1179 ft 108 kts 278°
2026-05-06 03:41 34.65087 135.25806 1183 ft 108 kts 285°
2026-05-06 03:42 34.65410 135.24988 1184 ft 109 kts 303°
2026-05-06 03:42 34.65805 135.24183 1147 ft 115 kts 304°
2026-05-06 03:42 34.66208 135.23337 1166 ft 114 kts 302°
2026-05-06 03:42 34.66646 135.22529 1176 ft 116 kts 302°
2026-05-06 03:43 34.67098 135.21688 1111 ft 121 kts 304°
2026-05-06 03:43 34.67531 135.20779 1037 ft 125 kts 301°
2026-05-06 03:43 34.67891 135.19823 1014 ft 122 kts 290°
2026-05-06 03:43 34.68210 135.18870 997 ft 121 kts 268°
2026-05-06 03:44 34.67794 135.18075 1092 ft 111 kts 202°
2026-05-06 03:44 34.67056 135.17944 1180 ft 107 kts 175°
2026-05-06 03:44 34.66334 135.17770 1273 ft 106 kts 197°
2026-05-06 03:44 34.65632 135.17479 1315 ft 107 kts 196°
2026-05-06 03:45 34.64914 135.17197 1350 ft 105 kts 193°
2026-05-06 03:45 34.64263 135.16780 1347 ft 108 kts 203°
2026-05-06 03:45 34.63548 135.16517 1262 ft 108 kts 176°
2026-05-06 03:45 34.63012 135.17061 1021 ft 107 kts 114°
2026-05-06 03:46 34.62936 135.17904 731 ft 102 kts 90°
2026-05-06 03:46 34.62979 135.18770 483 ft 99 kts 89°
2026-05-06 03:46 34.63048 135.19542 351 ft 87 kts 89°
2026-05-06 03:46 34.63104 135.20244 224 ft 81 kts 89°
2026-05-06 03:47 34.63156 135.20896 119 ft 73 kts 90°
2026-05-06 03:47 34.63206 135.21489 27 ft 63 kts 88°
2026-05-06 03:47 34.63226 135.21917 27 ft 36 kts 78°
2026-05-06 03:47 34.63314 135.22101 29 ft 23 kts
2026-05-06 03:48 34.63414 135.22181 30 ft 18 kts 78°
2026-05-06 03:48 34.63431 135.22365 30 ft 28 kts 87°
2026-05-06 03:48 34.63450 135.22633 30 ft 35 kts 83°
2026-05-06 03:48 34.63475 135.22901 30 ft 28 kts 84°
2026-05-06 03:49 34.63493 135.23115 30 ft 20 kts 85°
2026-05-06 03:49 34.63557 135.23189 30 ft 12 kts 62°
2026-05-06 03:49 34.63616 135.23230 30 ft 11 kts 354°
2026-05-06 03:49 34.63649 135.23227 30 ft 0 kts 350°